Terminal Aerodrome Forecast
Issued by NWS Rapid City, SD

Home | Current Version | Previous Version | Text Only | Print | Product List | Glossary Off
Versions: 1 2 3 4 5 6 7 8 9 10 11 12 13 14 15 16 17 18 19

951
FTUS43 KUNR 160520
TAFRAP
TAF
KRAP 160520Z 1606/1706 13006KT P6SM BKN150
     FM161000 16011KT P6SM SCT200 WS010/24030KT
     FM161900 21015G25KT P6SM SCT150=

USA.gov is the U.S. government's official web portal to all federal, state and local government web resources and services.